createdAt,value
2018-05-29T00:07:23.871Z,95.80
2018-05-29T00:12:28.478Z,95.80
2018-05-29T00:22:36.024Z,95.90
2018-05-29T00:27:40.263Z,96.10
2018-05-29T00:37:48.581Z,96.30
2018-05-29T00:42:52.439Z,96.60
2018-05-29T00:47:55.543Z,96.60
2018-05-29T00:52:58.626Z,96.70
2018-05-29T00:58:02.493Z,96.60
2018-05-29T01:13:14.494Z,96.80
2018-05-29T01:18:17.576Z,96.70
2018-05-29T01:23:21.425Z,97.10
2018-05-29T01:28:24.526Z,96.80
2018-05-29T01:33:27.622Z,96.70
2018-05-29T01:38:31.110Z,97.00
2018-05-29T01:43:34.602Z,96.90
2018-05-29T01:48:38.831Z,96.60
2018-05-29T01:53:41.922Z,96.90
2018-05-29T01:58:45.406Z,97.10
2018-05-29T02:03:49.264Z,97.60
2018-05-29T02:08:52.758Z,97.50
2018-05-29T02:13:56.612Z,97.30
2018-05-29T02:18:59.697Z,97.10
2018-05-29T02:24:03.552Z,96.90
2018-05-29T02:29:07.782Z,97.10
2018-05-29T02:34:12.049Z,96.90
2018-05-29T02:49:24.006Z,96.80
2018-05-29T02:54:27.119Z,96.60
2018-05-29T03:04:34.658Z,97.10
2018-05-29T03:19:46.639Z,97.10
2018-05-29T03:29:54.638Z,97.20
2018-05-29T03:34:57.726Z,97.20
2018-05-29T03:40:01.585Z,97.20
2018-05-29T03:45:05.076Z,97.40
2018-05-29T03:50:08.197Z,97.30
2018-05-29T03:55:11.682Z,97.30
2018-05-29T04:05:19.988Z,97.60
2018-05-29T04:10:24.589Z,97.60
2018-05-29T04:20:33.631Z,97.80
2018-05-29T04:25:37.870Z,97.80
2018-05-29T04:30:41.730Z,97.80
2018-05-29T04:35:44.834Z,97.80
2018-05-29T04:40:47.926Z,98.00
2018-05-29T04:50:55.474Z,97.80
2018-05-29T04:55:58.574Z,98.20
2018-05-29T05:01:02.067Z,97.60
2018-05-29T05:06:05.173Z,97.40
2018-05-29T05:11:08.262Z,97.30
2018-05-29T05:16:11.366Z,97.00
2018-05-29T05:26:19.665Z,96.60
2018-05-29T05:31:23.898Z,96.10
2018-05-29T05:36:28.131Z,95.20
2018-05-29T05:46:37.151Z,93.70
2018-05-29T05:51:42.203Z,93.20
2018-05-29T05:56:45.304Z,92.80
2018-05-29T06:06:53.627Z,89.80
2018-05-29T06:11:56.740Z,89.10
2018-05-29T06:22:05.411Z,87.80
2018-05-29T06:32:13.344Z,82.60
2018-05-29T06:37:16.441Z,81.80
2018-05-29T06:42:20.311Z,80.10
2018-05-29T06:52:29.760Z,77.20
2018-05-29T06:57:34.361Z,76.20
2018-05-29T07:02:38.599Z,73.90
2018-05-29T07:07:43.802Z,70.50
2018-05-29T07:12:47.667Z,71.00
2018-05-29T07:17:51.528Z,73.20
2018-05-29T07:22:55.395Z,71.70
2018-05-29T07:27:58.492Z,73.50
2018-05-29T07:38:06.429Z,72.00
2018-05-29T07:43:09.532Z,69.10
2018-05-29T07:48:13.755Z,70.70
2018-05-29T07:53:16.842Z,70.90
2018-05-29T08:03:25.526Z,65.60
2018-05-29T08:08:29.396Z,64.30
2018-05-29T08:13:32.895Z,64.40
2018-05-29T08:18:36.775Z,64.20
2018-05-29T08:23:40.614Z,66.90
2018-05-29T08:28:44.475Z,61.90
2018-05-29T08:33:47.569Z,62.70
2018-05-29T08:38:51.790Z,62.60
2018-05-29T08:43:55.655Z,64.10
2018-05-29T08:54:04.631Z,61.80
2018-05-29T08:59:08.525Z,64.80
2018-05-29T09:04:12.392Z,65.90
2018-05-29T09:09:15.886Z,69.80
2018-05-29T09:14:19.375Z,67.50
2018-05-29T09:19:22.871Z,68.30
2018-05-29T09:24:26.362Z,69.40
2018-05-29T09:34:33.905Z,67.40
2018-05-29T09:49:47.073Z,62.50
2018-05-29T09:54:50.977Z,60.30
2018-05-29T10:10:02.963Z,70.70
2018-05-29T10:15:06.821Z,70.50
2018-05-29T10:20:09.925Z,72.40
2018-05-29T10:25:14.159Z,67.60
2018-05-29T10:30:17.263Z,69.90
2018-05-29T10:35:21.123Z,69.70
2018-05-29T10:45:29.803Z,74.60
2018-05-29T10:50:34.029Z,72.00
2018-05-29T10:55:38.271Z,69.70
2018-05-29T11:00:41.799Z,71.10
2018-05-29T11:05:46.039Z,71.10
2018-05-29T11:10:49.186Z,74.30
2018-05-29T11:15:53.049Z,68.40
2018-05-29T11:31:06.182Z,68.90
2018-05-29T11:36:09.283Z,73.10
2018-05-29T11:41:12.434Z,70.60
2018-05-29T11:46:16.670Z,71.00
2018-05-29T11:51:20.166Z,70.50
2018-05-29T12:06:32.305Z,70.10
2018-05-29T12:11:35.401Z,69.80
2018-05-29T12:16:39.261Z,69.40
2018-05-29T12:21:43.499Z,70.70
2018-05-29T12:26:46.608Z,71.80
2018-05-29T12:31:49.711Z,68.50
2018-05-29T12:36:53.570Z,69.90
2018-05-29T12:41:57.452Z,69.50
2018-05-29T12:47:00.934Z,70.80
2018-05-29T12:52:05.557Z,70.10
2018-05-29T12:57:09.406Z,68.60
2018-05-29T13:02:12.498Z,67.00
2018-05-29T13:07:17.098Z,69.90
2018-05-29T13:12:20.197Z,71.20
2018-05-29T13:27:33.667Z,70.50
2018-05-29T13:32:37.564Z,72.90
2018-05-29T13:42:45.067Z,72.80
2018-05-29T13:47:48.932Z,74.00
2018-05-29T13:52:52.031Z,74.30
2018-05-29T13:57:55.514Z,75.90
2018-05-29T14:02:59.753Z,76.50
2018-05-29T14:08:02.860Z,74.00
2018-05-29T14:13:06.706Z,72.50
2018-05-29T14:18:10.569Z,74.30
2018-05-29T14:23:13.679Z,77.00
2018-05-29T14:48:36.019Z,80.20
2018-05-29T14:53:39.120Z,81.10
2018-05-29T15:03:47.042Z,80.90
2018-05-29T15:08:50.526Z,81.80
2018-05-29T15:18:58.081Z,82.30
2018-05-29T15:24:01.167Z,83.10
2018-05-29T15:29:04.659Z,82.30
2018-05-29T15:34:07.759Z,82.00
2018-05-29T15:39:11.617Z,81.30
2018-05-29T15:44:15.109Z,83.80
2018-05-29T15:49:19.362Z,83.90
2018-05-29T15:54:23.207Z,83.80
2018-05-29T15:59:26.299Z,82.80
2018-05-29T16:04:29.390Z,82.70
2018-05-29T16:09:33.980Z,83.70
2018-05-29T16:14:37.079Z,83.60
2018-05-29T16:19:40.180Z,86.40
2018-05-29T16:29:48.871Z,90.60
2018-05-29T16:34:51.960Z,91.20
2018-05-29T16:39:55.831Z,91.30
2018-05-29T16:45:00.066Z,91.50
2018-05-29T16:55:09.159Z,91.80
2018-05-29T17:00:13.388Z,90.60
2018-05-29T17:10:22.447Z,92.50
2018-05-29T17:15:25.686Z,92.50
2018-05-29T17:30:38.321Z,93.70
2018-05-29T17:40:45.849Z,94.00
2018-05-29T17:45:49.719Z,94.70
2018-05-29T17:50:52.821Z,94.80
2018-05-29T17:55:55.919Z,94.30
2018-05-29T18:00:59.015Z,94.70
2018-05-29T18:06:03.255Z,95.00
2018-05-29T18:16:10.783Z,94.10
2018-05-29T18:21:13.873Z,93.80
2018-05-29T18:26:17.356Z,94.20
2018-05-29T18:31:20.454Z,94.60
2018-05-29T18:41:28.046Z,95.10
2018-05-29T18:46:31.534Z,95.50
2018-05-29T18:51:35.031Z,95.10
2018-05-29T19:01:43.336Z,94.90
2018-05-29T19:06:47.934Z,95.20
2018-05-29T19:11:51.035Z,95.30
2018-05-29T19:16:54.597Z,95.50
2018-05-29T19:21:57.626Z,95.80
2018-05-29T19:27:01.483Z,95.90
2018-05-29T19:32:04.973Z,96.20
2018-05-29T19:37:09.195Z,96.20
2018-05-29T19:47:17.146Z,96.10
2018-05-29T19:52:21.375Z,96.10
2018-05-29T20:12:39.697Z,96.40
2018-05-29T20:17:43.930Z,96.40
2018-05-29T20:22:48.155Z,96.40
2018-05-29T20:27:51.242Z,96.40
2018-05-29T20:32:54.339Z,96.50
2018-05-29T20:37:58.189Z,96.60
2018-05-29T20:53:10.166Z,96.70
2018-05-29T20:58:14.777Z,96.80
2018-05-29T21:03:19.019Z,97.10
2018-05-29T21:08:23.251Z,97.20
2018-05-29T21:13:27.110Z,97.60
2018-05-29T21:18:30.965Z,97.70
2018-05-29T21:23:35.198Z,97.60
2018-05-29T21:28:38.698Z,97.70
2018-05-29T21:43:50.674Z,98.20
2018-05-29T21:48:54.232Z,98.40
2018-05-29T21:53:57.714Z,98.50
2018-05-29T21:59:01.520Z,98.40
2018-05-29T22:04:05.014Z,98.50
2018-05-29T22:09:08.520Z,98.60
2018-05-29T22:14:12.020Z,98.30
2018-05-29T22:19:15.111Z,98.40
2018-05-29T22:24:18.971Z,98.10
2018-05-29T22:29:22.063Z,98.30
2018-05-29T22:34:25.166Z,98.60
2018-05-29T22:39:29.035Z,98.40
2018-05-29T22:49:37.325Z,98.50
2018-05-29T22:54:41.181Z,98.50
2018-05-29T22:59:45.786Z,98.60
2018-05-29T23:04:49.275Z,98.70
2018-05-29T23:09:53.527Z,98.80
2018-05-29T23:14:57.390Z,98.90
2018-05-29T23:20:01.255Z,98.90
2018-05-29T23:25:05.120Z,99.20
2018-05-29T23:30:08.981Z,98.90
2018-05-29T23:35:12.072Z,99.10
2018-05-29T23:40:15.163Z,99.10
2018-05-29T23:45:18.259Z,99.20
2018-05-29T23:50:21.355Z,99.10
2018-05-29T23:55:24.451Z,99.30
